sensor_id;sensor_type;location;lat;lon;timestamp;P1;durP1;ratioP1;P2;durP2;ratioP2
21392;SDS011;10857;52.228;21.026;2023-04-24T05:10:00;21.65;;;13.55;;
21392;SDS011;10857;52.228;21.026;2023-04-24T05:12:49;20.08;;;13.40;;
21392;SDS011;10857;52.228;21.026;2023-04-24T05:15:17;21.60;;;13.63;;
21392;SDS011;10857;52.228;21.026;2023-04-24T05:17:45;20.08;;;13.15;;
21392;SDS011;10857;52.228;21.026;2023-04-24T05:20:13;20.45;;;13.43;;
21392;SDS011;10857;52.228;21.026;2023-04-24T05:22:42;22.95;;;13.02;;
21392;SDS011;10857;52.228;21.026;2023-04-24T05:25:09;21.30;;;12.85;;
21392;SDS011;10857;52.228;21.026;2023-04-24T05:27:44;18.27;;;12.43;;
21392;SDS011;10857;52.228;21.026;2023-04-24T05:30:14;19.33;;;13.20;;
21392;SDS011;10857;52.228;21.026;2023-04-24T05:32:42;23.63;;;13.10;;
21392;SDS011;10857;52.228;21.026;2023-04-24T05:35:09;21.95;;;13.75;;
21392;SDS011;10857;52.228;21.026;2023-04-24T05:37:37;19.25;;;12.70;;
21392;SDS011;10857;52.228;21.026;2023-04-24T05:40:05;24.13;;;12.90;;
21392;SDS011;10857;52.228;21.026;2023-04-24T05:42:33;19.17;;;12.77;;
21392;SDS011;10857;52.228;21.026;2023-04-24T05:45:01;22.90;;;13.02;;
21392;SDS011;10857;52.228;21.026;2023-04-24T05:47:28;21.00;;;13.48;;
21392;SDS011;10857;52.228;21.026;2023-04-24T05:49:57;23.23;;;13.18;;
21392;SDS011;10857;52.228;21.026;2023-04-24T05:52:24;20.55;;;13.40;;
21392;SDS011;10857;52.228;21.026;2023-04-24T05:54:54;23.38;;;13.55;;
21392;SDS011;10857;52.228;21.026;2023-04-24T05:57:25;20.98;;;13.50;;
21392;SDS011;10857;52.228;21.026;2023-04-24T05:59:58;22.27;;;13.25;;
21392;SDS011;10857;52.228;21.026;2023-04-24T06:02:26;22.08;;;13.48;;
21392;SDS011;10857;52.228;21.026;2023-04-24T06:04:54;24.38;;;13.57;;
21392;SDS011;10857;52.228;21.026;2023-04-24T06:07:23;24.63;;;13.63;;
21392;SDS011;10857;52.228;21.026;2023-04-24T06:09:50;22.95;;;12.68;;
21392;SDS011;10857;52.228;21.026;2023-04-24T06:12:18;22.15;;;13.88;;
21392;SDS011;10857;52.228;21.026;2023-04-24T06:14:53;27.30;;;13.73;;
21392;SDS011;10857;52.228;21.026;2023-04-24T06:17:49;21.23;;;13.32;;
21392;SDS011;10857;52.228;21.026;2023-04-24T06:20:19;25.65;;;13.77;;
21392;SDS011;10857;52.228;21.026;2023-04-24T06:22:46;19.95;;;12.82;;
21392;SDS011;10857;52.228;21.026;2023-04-24T06:25:14;23.48;;;12.63;;
21392;SDS011;10857;52.228;21.026;2023-04-24T06:27:42;21.30;;;13.32;;
21392;SDS011;10857;52.228;21.026;2023-04-24T06:30:09;19.92;;;12.98;;
21392;SDS011;10857;52.228;21.026;2023-04-24T06:32:37;21.55;;;13.32;;
21392;SDS011;10857;52.228;21.026;2023-04-24T06:35:05;25.17;;;13.63;;
21392;SDS011;10857;52.228;21.026;2023-04-24T06:37:34;19.48;;;12.85;;
21392;SDS011;10857;52.228;21.026;2023-04-24T06:40:01;20.42;;;13.05;;
21392;SDS011;10857;52.228;21.026;2023-04-24T06:42:29;18.77;;;13.57;;
21392;SDS011;10857;52.228;21.026;2023-04-24T06:44:56;20.45;;;12.48;;
21392;SDS011;10857;52.228;21.026;2023-04-24T06:47:23;19.55;;;13.15;;
21392;SDS011;10857;52.228;21.026;2023-04-24T06:49:51;23.67;;;13.15;;
21392;SDS011;10857;52.228;21.026;2023-04-24T06:52:19;24.05;;;14.00;;
21392;SDS011;10857;52.228;21.026;2023-04-24T06:54:46;20.95;;;13.57;;
21392;SDS011;10857;52.228;21.026;2023-04-24T06:57:14;22.45;;;14.07;;
21392;SDS011;10857;52.228;21.026;2023-04-24T06:59:42;20.23;;;13.18;;
21392;SDS011;10857;52.228;21.026;2023-04-24T07:02:10;22.85;;;14.00;;
21392;SDS011;10857;52.228;21.026;2023-04-24T07:04:37;21.35;;;13.23;;
21392;SDS011;10857;52.228;21.026;2023-04-24T07:07:05;22.30;;;13.20;;
21392;SDS011;10857;52.228;21.026;2023-04-24T07:09:33;19.83;;;12.95;;
21392;SDS011;10857;52.228;21.026;2023-04-24T07:12:04;20.52;;;13.25;;
21392;SDS011;10857;52.228;21.026;2023-04-24T07:14:32;22.33;;;12.98;;
21392;SDS011;10857;52.228;21.026;2023-04-24T07:16:59;28.65;;;14.85;;
21392;SDS011;10857;52.228;21.026;2023-04-24T07:19:27;22.40;;;13.15;;
21392;SDS011;10857;52.228;21.026;2023-04-24T07:21:54;21.92;;;12.80;;
21392;SDS011;10857;52.228;21.026;2023-04-24T07:24:22;20.15;;;12.35;;
21392;SDS011;10857;52.228;21.026;2023-04-24T07:26:52;20.23;;;12.65;;
21392;SDS011;10857;52.228;21.026;2023-04-24T07:29:19;24.17;;;12.77;;
21392;SDS011;10857;52.228;21.026;2023-04-24T07:31:47;23.70;;;12.32;;
21392;SDS011;10857;52.228;21.026;2023-04-24T07:34:14;20.80;;;12.05;;
21392;SDS011;10857;52.228;21.026;2023-04-24T07:36:42;27.48;;;12.38;;
21392;SDS011;10857;52.228;21.026;2023-04-24T07:39:09;27.80;;;12.93;;
21392;SDS011;10857;52.228;21.026;2023-04-24T07:41:36;25.42;;;13.40;;
21392;SDS011;10857;52.228;21.026;2023-04-24T07:44:04;23.50;;;13.05;;
21392;SDS011;10857;52.228;21.026;2023-04-24T07:46:31;25.58;;;12.73;;
21392;SDS011;10857;52.228;21.026;2023-04-24T07:48:59;32.50;;;13.15;;
21392;SDS011;10857;52.228;21.026;2023-04-24T07:51:39;28.20;;;12.50;;
21392;SDS011;10857;52.228;21.026;2023-04-24T07:54:08;28.05;;;12.48;;
21392;SDS011;10857;52.228;21.026;2023-04-24T07:56:35;17.83;;;11.50;;
21392;SDS011;10857;52.228;21.026;2023-04-24T07:59:05;18.23;;;11.57;;
21392;SDS011;10857;52.228;21.026;2023-04-24T08:01:33;20.98;;;11.75;;
21392;SDS011;10857;52.228;21.026;2023-04-24T08:04:00;19.83;;;11.43;;
21392;SDS011;10857;52.228;21.026;2023-04-24T08:06:28;20.15;;;11.50;;
21392;SDS011;10857;52.228;21.026;2023-04-24T08:08:57;15.52;;;11.10;;
21392;SDS011;10857;52.228;21.026;2023-04-24T08:11:25;16.77;;;10.90;;
21392;SDS011;10857;52.228;21.026;2023-04-24T08:13:52;15.60;;;12.00;;
21392;SDS011;10857;52.228;21.026;2023-04-24T08:16:21;17.85;;;11.90;;
21392;SDS011;10857;52.228;21.026;2023-04-24T08:18:50;19.00;;;11.77;;
21392;SDS011;10857;52.228;21.026;2023-04-24T08:21:18;19.23;;;11.68;;
21392;SDS011;10857;52.228;21.026;2023-04-24T08:23:46;18.27;;;11.77;;
21392;SDS011;10857;52.228;21.026;2023-04-24T08:26:14;16.70;;;11.85;;
21392;SDS011;10857;52.228;21.026;2023-04-24T08:28:42;17.33;;;11.55;;
21392;SDS011;10857;52.228;21.026;2023-04-24T08:31:11;18.08;;;10.98;;
21392;SDS011;10857;52.228;21.026;2023-04-24T08:33:38;15.40;;;11.25;;
21392;SDS011;10857;52.228;21.026;2023-04-24T08:36:07;15.95;;;11.40;;
21392;SDS011;10857;52.228;21.026;2023-04-24T08:38:35;15.60;;;10.50;;
21392;SDS011;10857;52.228;21.026;2023-04-24T08:41:06;15.63;;;10.30;;
21392;SDS011;10857;52.228;21.026;2023-04-24T08:43:36;15.80;;;10.80;;
21392;SDS011;10857;52.228;21.026;2023-04-24T08:46:04;16.65;;;11.23;;
21392;SDS011;10857;52.228;21.026;2023-04-24T08:48:37;19.15;;;10.73;;
21392;SDS011;10857;52.228;21.026;2023-04-24T08:51:06;17.23;;;11.07;;
21392;SDS011;10857;52.228;21.026;2023-04-24T08:53:34;17.40;;;10.77;;
21392;SDS011;10857;52.228;21.026;2023-04-24T08:56:02;15.82;;;10.48;;
21392;SDS011;10857;52.228;21.026;2023-04-24T08:58:31;19.77;;;10.32;;
21392;SDS011;10857;52.228;21.026;2023-04-24T09:00:59;18.33;;;10.00;;
21392;SDS011;10857;52.228;21.026;2023-04-24T09:03:27;16.55;;;10.48;;
21392;SDS011;10857;52.228;21.026;2023-04-24T09:05:55;15.77;;;10.70;;
21392;SDS011;10857;52.228;21.026;2023-04-24T09:08:25;13.93;;;9.77;;
21392;SDS011;10857;52.228;21.026;2023-04-24T09:10:53;16.58;;;9.65;;
21392;SDS011;10857;52.228;21.026;2023-04-24T09:13:21;13.63;;;9.80;;
21392;SDS011;10857;52.228;21.026;2023-04-24T09:15:53;16.30;;;10.65;;
21392;SDS011;10857;52.228;21.026;2023-04-24T09:18:23;14.25;;;10.43;;
21392;SDS011;10857;52.228;21.026;2023-04-24T09:20:58;16.70;;;10.18;;
21392;SDS011;10857;52.228;21.026;2023-04-24T09:23:27;18.55;;;10.60;;
21392;SDS011;10857;52.228;21.026;2023-04-24T09:25:55;16.88;;;10.43;;
21392;SDS011;10857;52.228;21.026;2023-04-24T09:28:30;14.25;;;10.35;;
21392;SDS011;10857;52.228;21.026;2023-04-24T09:31:03;16.50;;;10.23;;
21392;SDS011;10857;52.228;21.026;2023-04-24T09:33:30;12.80;;;9.68;;
21392;SDS011;10857;52.228;21.026;2023-04-24T09:36:00;18.42;;;10.07;;
21392;SDS011;10857;52.228;21.026;2023-04-24T09:38:35;18.92;;;10.60;;
21392;SDS011;10857;52.228;21.026;2023-04-24T09:41:05;16.73;;;11.00;;
21392;SDS011;10857;52.228;21.026;2023-04-24T09:43:33;16.70;;;10.43;;
21392;SDS011;10857;52.228;21.026;2023-04-24T09:46:05;17.75;;;10.60;;
21392;SDS011;10857;52.228;21.026;2023-04-24T09:48:35;16.45;;;10.57;;
21392;SDS011;10857;52.228;21.026;2023-04-24T09:51:03;18.77;;;11.25;;
21392;SDS011;10857;52.228;21.026;2023-04-24T09:53:33;15.65;;;10.68;;
21392;SDS011;10857;52.228;21.026;2023-04-24T09:56:07;18.65;;;10.65;;
21392;SDS011;10857;52.228;21.026;2023-04-24T09:58:35;17.83;;;10.32;;
21392;SDS011;10857;52.228;21.026;2023-04-24T10:01:03;17.98;;;10.85;;
21392;SDS011;10857;52.228;21.026;2023-04-24T10:03:31;17.85;;;10.48;;
21392;SDS011;10857;52.228;21.026;2023-04-24T10:06:00;15.23;;;10.32;;
21392;SDS011;10857;52.228;21.026;2023-04-24T10:08:32;16.02;;;9.63;;
21392;SDS011;10857;52.228;21.026;2023-04-24T10:11:00;16.38;;;8.98;;
21392;SDS011;10857;52.228;21.026;2023-04-24T10:13:29;14.85;;;8.90;;
21392;SDS011;10857;52.228;21.026;2023-04-24T10:15:57;17.48;;;9.90;;
21392;SDS011;10857;52.228;21.026;2023-04-24T10:18:26;11.30;;;9.13;;
21392;SDS011;10857;52.228;21.026;2023-04-24T10:20:54;13.13;;;8.90;;
21392;SDS011;10857;52.228;21.026;2023-04-24T10:23:24;13.10;;;10.02;;
21392;SDS011;10857;52.228;21.026;2023-04-24T10:25:54;16.45;;;10.27;;
21392;SDS011;10857;52.228;21.026;2023-04-24T10:28:23;17.88;;;10.50;;
21392;SDS011;10857;52.228;21.026;2023-04-24T10:30:51;14.98;;;9.85;;
21392;SDS011;10857;52.228;21.026;2023-04-24T10:33:21;16.40;;;10.00;;
21392;SDS011;10857;52.228;21.026;2023-04-24T10:35:52;16.85;;;10.15;;
21392;SDS011;10857;52.228;21.026;2023-04-24T10:38:26;13.00;;;10.23;;
21392;SDS011;10857;52.228;21.026;2023-04-24T10:41:06;16.20;;;10.02;;
21392;SDS011;10857;52.228;21.026;2023-04-24T10:43:35;12.95;;;10.10;;
21392;SDS011;10857;52.228;21.026;2023-04-24T10:46:04;21.08;;;10.35;;
21392;SDS011;10857;52.228;21.026;2023-04-24T10:48:32;15.88;;;10.70;;
21392;SDS011;10857;52.228;21.026;2023-04-24T10:51:00;11.98;;;9.50;;
21392;SDS011;10857;52.228;21.026;2023-04-24T10:53:43;13.40;;;11.50;;
21392;SDS011;10857;52.228;21.026;2023-04-24T10:56:15;12.93;;;9.90;;
21392;SDS011;10857;52.228;21.026;2023-04-24T10:58:49;16.23;;;9.68;;
21392;SDS011;10857;52.228;21.026;2023-04-24T11:01:29;12.13;;;8.63;;
21392;SDS011;10857;52.228;21.026;2023-04-24T11:04:02;11.65;;;7.70;;
21392;SDS011;10857;52.228;21.026;2023-04-24T11:06:34;11.27;;;8.02;;
21392;SDS011;10857;52.228;21.026;2023-04-24T11:09:06;11.75;;;8.18;;
21392;SDS011;10857;52.228;21.026;2023-04-24T11:11:35;10.40;;;8.00;;
21392;SDS011;10857;52.228;21.026;2023-04-24T11:14:15;12.18;;;8.20;;
21392;SDS011;10857;52.228;21.026;2023-04-24T11:16:52;12.70;;;8.82;;
21392;SDS011;10857;52.228;21.026;2023-04-24T11:19:27;11.43;;;8.35;;
21392;SDS011;10857;52.228;21.026;2023-04-24T11:34:52;8.35;;;6.85;;
21392;SDS011;10857;52.228;21.026;2023-04-24T11:37:21;10.25;;;7.03;;
21392;SDS011;10857;52.228;21.026;2023-04-24T11:39:53;11.25;;;7.50;;
21392;SDS011;10857;52.228;21.026;2023-04-24T11:42:21;11.05;;;7.45;;
21392;SDS011;10857;52.228;21.026;2023-04-24T11:44:49;11.40;;;7.65;;
21392;SDS011;10857;52.228;21.026;2023-04-24T11:47:18;9.75;;;7.60;;
21392;SDS011;10857;52.228;21.026;2023-04-24T11:49:46;11.70;;;7.90;;
21392;SDS011;10857;52.228;21.026;2023-04-24T11:52:15;11.88;;;7.50;;
21392;SDS011;10857;52.228;21.026;2023-04-24T11:54:47;9.45;;;7.57;;
21392;SDS011;10857;52.228;21.026;2023-04-24T11:57:15;12.00;;;7.68;;
21392;SDS011;10857;52.228;21.026;2023-04-24T11:59:42;11.10;;;8.02;;
21392;SDS011;10857;52.228;21.026;2023-04-24T12:02:19;13.88;;;7.70;;
21392;SDS011;10857;52.228;21.026;2023-04-24T12:04:47;12.60;;;7.97;;
21392;SDS011;10857;52.228;21.026;2023-04-24T12:07:15;10.63;;;7.07;;
21392;SDS011;10857;52.228;21.026;2023-04-24T12:09:54;12.23;;;7.40;;
21392;SDS011;10857;52.228;21.026;2023-04-24T12:12:23;10.93;;;7.75;;
21392;SDS011;10857;52.228;21.026;2023-04-24T12:14:55;9.38;;;7.45;;
21392;SDS011;10857;52.228;21.026;2023-04-24T12:17:28;10.65;;;7.70;;
21392;SDS011;10857;52.228;21.026;2023-04-24T12:20:04;10.95;;;7.20;;
21392;SDS011;10857;52.228;21.026;2023-04-24T12:22:51;12.15;;;7.97;;
21392;SDS011;10857;52.228;21.026;2023-04-24T12:25:22;10.60;;;7.47;;
21392;SDS011;10857;52.228;21.026;2023-04-24T12:27:54;11.90;;;7.63;;
21392;SDS011;10857;52.228;21.026;2023-04-24T12:30:26;10.43;;;7.47;;
21392;SDS011;10857;52.228;21.026;2023-04-24T12:32:56;11.82;;;7.35;;
21392;SDS011;10857;52.228;21.026;2023-04-24T12:35:31;10.73;;;7.20;;
21392;SDS011;10857;52.228;21.026;2023-04-24T12:38:05;11.52;;;7.93;;
21392;SDS011;10857;52.228;21.026;2023-04-24T12:40:35;11.05;;;8.20;;
21392;SDS011;10857;52.228;21.026;2023-04-24T12:43:15;10.23;;;7.90;;
21392;SDS011;10857;52.228;21.026;2023-04-24T12:45:45;9.15;;;7.97;;
21392;SDS011;10857;52.228;21.026;2023-04-24T12:48:18;11.00;;;8.30;;
21392;SDS011;10857;52.228;21.026;2023-04-24T12:50:49;27.60;;;7.50;;
21392;SDS011;10857;52.228;21.026;2023-04-24T12:53:17;25.98;;;6.53;;
21392;SDS011;10857;52.228;21.026;2023-04-24T12:55:44;86.63;;;9.20;;
21392;SDS011;10857;52.228;21.026;2023-04-24T12:58:14;21.33;;;6.03;;
21392;SDS011;10857;52.228;21.026;2023-04-24T13:00:43;23.15;;;5.80;;
21392;SDS011;10857;52.228;21.026;2023-04-24T13:03:12;16.40;;;5.30;;
21392;SDS011;10857;52.228;21.026;2023-04-24T13:05:42;16.90;;;5.53;;
21392;SDS011;10857;52.228;21.026;2023-04-24T13:08:10;12.93;;;5.50;;
21392;SDS011;10857;52.228;21.026;2023-04-24T13:10:39;16.38;;;5.45;;
21392;SDS011;10857;52.228;21.026;2023-04-24T13:13:07;24.05;;;5.72;;
21392;SDS011;10857;52.228;21.026;2023-04-24T13:15:35;16.20;;;6.25;;
21392;SDS011;10857;52.228;21.026;2023-04-24T13:18:04;15.43;;;5.93;;
21392;SDS011;10857;52.228;21.026;2023-04-24T13:20:32;22.48;;;6.93;;
21392;SDS011;10857;52.228;21.026;2023-04-24T13:23:02;14.82;;;5.93;;
21392;SDS011;10857;52.228;21.026;2023-04-24T13:25:34;14.45;;;5.20;;
21392;SDS011;10857;52.228;21.026;2023-04-24T13:28:03;12.20;;;5.65;;
21392;SDS011;10857;52.228;21.026;2023-04-24T13:30:31;11.18;;;5.65;;
21392;SDS011;10857;52.228;21.026;2023-04-24T13:32:58;9.43;;;5.32;;
21392;SDS011;10857;52.228;21.026;2023-04-24T13:35:26;8.55;;;5.20;;
21392;SDS011;10857;52.228;21.026;2023-04-24T13:37:53;16.15;;;5.63;;
21392;SDS011;10857;52.228;21.026;2023-04-24T13:40:21;8.35;;;5.20;;
21392;SDS011;10857;52.228;21.026;2023-04-24T13:42:48;8.88;;;5.60;;
21392;SDS011;10857;52.228;21.026;2023-04-24T13:45:16;11.55;;;5.40;;
21392;SDS011;10857;52.228;21.026;2023-04-24T13:47:51;10.75;;;5.18;;
21392;SDS011;10857;52.228;21.026;2023-04-24T13:50:20;8.98;;;4.97;;
21392;SDS011;10857;52.228;21.026;2023-04-24T13:52:48;10.52;;;4.85;;
21392;SDS011;10857;52.228;21.026;2023-04-24T13:55:15;8.18;;;5.43;;
21392;SDS011;10857;52.228;21.026;2023-04-24T13:57:43;10.48;;;5.25;;
21392;SDS011;10857;52.228;21.026;2023-04-24T14:00:11;9.20;;;4.82;;
21392;SDS011;10857;52.228;21.026;2023-04-24T14:02:39;6.53;;;4.55;;
21392;SDS011;10857;52.228;21.026;2023-04-24T14:05:08;10.23;;;4.95;;
21392;SDS011;10857;52.228;21.026;2023-04-24T14:07:37;10.23;;;4.60;;
21392;SDS011;10857;52.228;21.026;2023-04-24T14:10:05;11.15;;;4.85;;
21392;SDS011;10857;52.228;21.026;2023-04-24T14:12:33;9.80;;;4.95;;
21392;SDS011;10857;52.228;21.026;2023-04-24T14:15:03;8.13;;;4.88;;
21392;SDS011;10857;52.228;21.026;2023-04-24T14:17:31;7.53;;;5.07;;
21392;SDS011;10857;52.228;21.026;2023-04-24T14:19:59;7.05;;;4.80;;
21392;SDS011;10857;52.228;21.026;2023-04-24T14:22:27;7.20;;;5.18;;
21392;SDS011;10857;52.228;21.026;2023-04-24T14:24:54;7.22;;;4.60;;
21392;SDS011;10857;52.228;21.026;2023-04-24T14:27:22;6.60;;;4.90;;
21392;SDS011;10857;52.228;21.026;2023-04-24T14:29:49;9.00;;;4.57;;
21392;SDS011;10857;52.228;21.026;2023-04-24T14:32:17;9.50;;;4.78;;
21392;SDS011;10857;52.228;21.026;2023-04-24T14:34:47;8.02;;;4.70;;
21392;SDS011;10857;52.228;21.026;2023-04-24T14:37:15;6.05;;;4.80;;
21392;SDS011;10857;52.228;21.026;2023-04-24T14:39:44;6.93;;;4.88;;
21392;SDS011;10857;52.228;21.026;2023-04-24T14:42:33;8.85;;;5.20;;
21392;SDS011;10857;52.228;21.026;2023-04-24T14:45:06;8.95;;;5.40;;
21392;SDS011;10857;52.228;21.026;2023-04-24T14:47:39;9.05;;;5.28;;
21392;SDS011;10857;52.228;21.026;2023-04-24T14:50:07;6.97;;;5.05;;
21392;SDS011;10857;52.228;21.026;2023-04-24T14:52:39;11.10;;;5.50;;
21392;SDS011;10857;52.228;21.026;2023-04-24T14:55:07;7.32;;;5.40;;
21392;SDS011;10857;52.228;21.026;2023-04-24T14:57:35;8.32;;;5.50;;
21392;SDS011;10857;52.228;21.026;2023-04-24T15:00:06;9.20;;;5.55;;
21392;SDS011;10857;52.228;21.026;2023-04-24T15:02:40;10.60;;;5.65;;
21392;SDS011;10857;52.228;21.026;2023-04-24T15:05:20;11.68;;;5.93;;
21392;SDS011;10857;52.228;21.026;2023-04-24T15:07:49;13.85;;;5.85;;
21392;SDS011;10857;52.228;21.026;2023-04-24T15:10:17;9.18;;;5.55;;
21392;SDS011;10857;52.228;21.026;2023-04-24T15:12:49;10.05;;;5.70;;
21392;SDS011;10857;52.228;21.026;2023-04-24T15:15:17;8.63;;;5.50;;
21392;SDS011;10857;52.228;21.026;2023-04-24T15:17:52;8.70;;;5.40;;
21392;SDS011;10857;52.228;21.026;2023-04-24T15:20:21;8.18;;;5.13;;
21392;SDS011;10857;52.228;21.026;2023-04-24T15:22:49;6.80;;;4.75;;
21392;SDS011;10857;52.228;21.026;2023-04-24T15:25:28;8.13;;;5.10;;
21392;SDS011;10857;52.228;21.026;2023-04-24T15:27:55;10.00;;;5.53;;
21392;SDS011;10857;52.228;21.026;2023-04-24T15:30:24;7.75;;;5.15;;
21392;SDS011;10857;52.228;21.026;2023-04-24T15:32:51;7.68;;;5.07;;
21392;SDS011;10857;52.228;21.026;2023-04-24T15:35:19;8.88;;;5.40;;
21392;SDS011;10857;52.228;21.026;2023-04-24T15:37:46;7.65;;;4.97;;
21392;SDS011;10857;52.228;21.026;2023-04-24T15:40:14;6.72;;;5.10;;
21392;SDS011;10857;52.228;21.026;2023-04-24T15:42:46;8.23;;;5.28;;
21392;SDS011;10857;52.228;21.026;2023-04-24T15:45:13;9.00;;;5.00;;
21392;SDS011;10857;52.228;21.026;2023-04-24T15:47:41;8.48;;;4.97;;
21392;SDS011;10857;52.228;21.026;2023-04-24T15:50:09;9.00;;;4.90;;
21392;SDS011;10857;52.228;21.026;2023-04-24T15:52:40;10.85;;;5.93;;
21392;SDS011;10857;52.228;21.026;2023-04-24T15:55:08;6.70;;;5.10;;
21392;SDS011;10857;52.228;21.026;2023-04-24T15:57:37;12.68;;;5.88;;
21392;SDS011;10857;52.228;21.026;2023-04-24T16:00:09;10.13;;;6.05;;
21392;SDS011;10857;52.228;21.026;2023-04-24T16:02:37;9.48;;;5.78;;
21392;SDS011;10857;52.228;21.026;2023-04-24T16:05:06;9.80;;;5.72;;
21392;SDS011;10857;52.228;21.026;2023-04-24T16:07:36;10.95;;;5.80;;
21392;SDS011;10857;52.228;21.026;2023-04-24T16:10:04;14.63;;;6.18;;
21392;SDS011;10857;52.228;21.026;2023-04-24T16:12:33;11.02;;;5.80;;
21392;SDS011;10857;52.228;21.026;2023-04-24T16:15:04;13.75;;;6.10;;
21392;SDS011;10857;52.228;21.026;2023-04-24T16:17:41;15.13;;;6.53;;
21392;SDS011;10857;52.228;21.026;2023-04-24T16:20:11;15.77;;;6.43;;
21392;SDS011;10857;52.228;21.026;2023-04-24T16:22:45;9.75;;;6.65;;
21392;SDS011;10857;52.228;21.026;2023-04-24T16:25:14;10.00;;;5.90;;
21392;SDS011;10857;52.228;21.026;2023-04-24T16:27:42;9.45;;;6.75;;
21392;SDS011;10857;52.228;21.026;2023-04-24T16:30:12;10.85;;;6.07;;
21392;SDS011;10857;52.228;21.026;2023-04-24T16:32:43;12.57;;;5.95;;
21392;SDS011;10857;52.228;21.026;2023-04-24T16:35:12;10.77;;;6.00;;
21392;SDS011;10857;52.228;21.026;2023-04-24T16:37:40;12.25;;;6.10;;
21392;SDS011;10857;52.228;21.026;2023-04-24T16:40:23;9.50;;;5.60;;
21392;SDS011;10857;52.228;21.026;2023-04-24T16:42:54;10.65;;;5.80;;
21392;SDS011;10857;52.228;21.026;2023-04-24T16:45:21;6.70;;;5.90;;
21392;SDS011;10857;52.228;21.026;2023-04-24T16:47:55;8.13;;;6.65;;
21392;SDS011;10857;52.228;21.026;2023-04-24T16:50:25;11.68;;;6.32;;
21392;SDS011;10857;52.228;21.026;2023-04-24T16:52:55;12.55;;;6.20;;
21392;SDS011;10857;52.228;21.026;2023-04-24T16:55:24;9.95;;;6.05;;
21392;SDS011;10857;52.228;21.026;2023-04-24T16:57:54;10.48;;;5.93;;
21392;SDS011;10857;52.228;21.026;2023-04-24T17:00:27;14.30;;;6.03;;
21392;SDS011;10857;52.228;21.026;2023-04-24T17:03:02;11.20;;;6.38;;
21392;SDS011;10857;52.228;21.026;2023-04-24T17:05:34;13.65;;;6.70;;
21392;SDS011;10857;52.228;21.026;2023-04-24T17:08:02;10.30;;;6.40;;
21392;SDS011;10857;52.228;21.026;2023-04-24T17:10:30;12.30;;;7.30;;
21392;SDS011;10857;52.228;21.026;2023-04-24T17:12:58;13.88;;;6.63;;
21392;SDS011;10857;52.228;21.026;2023-04-24T17:15:26;12.07;;;6.90;;
21392;SDS011;10857;52.228;21.026;2023-04-24T17:17:56;15.50;;;7.38;;
21392;SDS011;10857;52.228;21.026;2023-04-24T17:20:25;15.00;;;6.68;;
21392;SDS011;10857;52.228;21.026;2023-04-24T17:22:55;12.93;;;6.30;;
21392;SDS011;10857;52.228;21.026;2023-04-24T17:25:23;13.63;;;6.38;;
21392;SDS011;10857;52.228;21.026;2023-04-24T17:27:51;15.18;;;6.47;;
21392;SDS011;10857;52.228;21.026;2023-04-24T17:30:19;11.10;;;6.40;;
21392;SDS011;10857;52.228;21.026;2023-04-24T17:32:48;14.40;;;6.03;;
21392;SDS011;10857;52.228;21.026;2023-04-24T17:35:16;14.80;;;6.70;;
21392;SDS011;10857;52.228;21.026;2023-04-24T17:37:45;11.98;;;6.65;;
21392;SDS011;10857;52.228;21.026;2023-04-24T17:40:12;10.60;;;6.93;;
21392;SDS011;10857;52.228;21.026;2023-04-24T17:42:40;13.65;;;6.88;;
21392;SDS011;10857;52.228;21.026;2023-04-24T17:45:07;13.73;;;6.90;;
21392;SDS011;10857;52.228;21.026;2023-04-24T17:47:35;13.98;;;6.90;;
21392;SDS011;10857;52.228;21.026;2023-04-24T17:50:03;15.13;;;6.65;;
21392;SDS011;10857;52.228;21.026;2023-04-24T17:52:31;10.73;;;6.88;;
21392;SDS011;10857;52.228;21.026;2023-04-24T17:55:00;11.65;;;6.80;;
21392;SDS011;10857;52.228;21.026;2023-04-24T17:57:27;11.85;;;7.28;;
21392;SDS011;10857;52.228;21.026;2023-04-24T17:59:56;9.70;;;6.93;;
21392;SDS011;10857;52.228;21.026;2023-04-24T18:02:23;14.23;;;7.20;;
21392;SDS011;10857;52.228;21.026;2023-04-24T18:04:51;13.95;;;7.10;;
21392;SDS011;10857;52.228;21.026;2023-04-24T18:07:21;17.08;;;7.45;;
21392;SDS011;10857;52.228;21.026;2023-04-24T18:09:48;14.90;;;7.75;;
21392;SDS011;10857;52.228;21.026;2023-04-24T18:12:21;15.75;;;8.20;;
21392;SDS011;10857;52.228;21.026;2023-04-24T18:14:49;17.38;;;7.20;;
21392;SDS011;10857;52.228;21.026;2023-04-24T18:17:28;16.25;;;7.78;;
21392;SDS011;10857;52.228;21.026;2023-04-24T18:19:55;15.70;;;7.88;;
21392;SDS011;10857;52.228;21.026;2023-04-24T18:22:22;12.48;;;7.30;;
21392;SDS011;10857;52.228;21.026;2023-04-24T18:24:50;11.60;;;7.60;;
21392;SDS011;10857;52.228;21.026;2023-04-24T18:27:17;14.40;;;7.40;;
21392;SDS011;10857;52.228;21.026;2023-04-24T18:29:44;12.55;;;7.35;;
21392;SDS011;10857;52.228;21.026;2023-04-24T18:32:12;15.48;;;7.30;;
21392;SDS011;10857;52.228;21.026;2023-04-24T18:34:39;10.57;;;7.07;;
21392;SDS011;10857;52.228;21.026;2023-04-24T18:37:06;13.93;;;7.38;;
21392;SDS011;10857;52.228;21.026;2023-04-24T18:39:34;13.20;;;7.20;;
21392;SDS011;10857;52.228;21.026;2023-04-24T18:42:02;12.48;;;7.43;;
21392;SDS011;10857;52.228;21.026;2023-04-24T18:44:29;11.98;;;6.90;;
21392;SDS011;10857;52.228;21.026;2023-04-24T18:46:56;12.35;;;7.20;;
21392;SDS011;10857;52.228;21.026;2023-04-24T18:49:24;12.05;;;7.00;;
21392;SDS011;10857;52.228;21.026;2023-04-24T18:51:52;13.35;;;7.10;;
21392;SDS011;10857;52.228;21.026;2023-04-24T18:54:20;9.10;;;6.68;;
21392;SDS011;10857;52.228;21.026;2023-04-24T18:56:47;13.73;;;7.05;;
21392;SDS011;10857;52.228;21.026;2023-04-24T18:59:14;11.75;;;7.43;;
21392;SDS011;10857;52.228;21.026;2023-04-24T19:01:44;12.07;;;7.90;;
21392;SDS011;10857;52.228;21.026;2023-04-24T19:04:11;14.05;;;7.90;;
21392;SDS011;10857;52.228;21.026;2023-04-24T19:06:39;14.63;;;7.90;;
21392;SDS011;10857;52.228;21.026;2023-04-24T19:09:06;11.65;;;7.40;;
21392;SDS011;10857;52.228;21.026;2023-04-24T19:11:34;11.52;;;7.60;;
21392;SDS011;10857;52.228;21.026;2023-04-24T19:14:01;17.20;;;7.80;;
21392;SDS011;10857;52.228;21.026;2023-04-24T19:16:30;14.20;;;7.72;;
21392;SDS011;10857;52.228;21.026;2023-04-24T19:18:58;13.82;;;7.45;;
21392;SDS011;10857;52.228;21.026;2023-04-24T19:21:26;11.80;;;7.95;;
21392;SDS011;10857;52.228;21.026;2023-04-24T19:23:53;12.13;;;7.63;;
21392;SDS011;10857;52.228;21.026;2023-04-24T19:26:22;14.32;;;7.65;;
21392;SDS011;10857;52.228;21.026;2023-04-24T19:28:51;13.95;;;7.20;;
21392;SDS011;10857;52.228;21.026;2023-04-24T19:31:19;13.38;;;7.53;;
21392;SDS011;10857;52.228;21.026;2023-04-24T19:33:46;11.70;;;7.85;;
21392;SDS011;10857;52.228;21.026;2023-04-24T19:36:14;13.73;;;7.40;;
21392;SDS011;10857;52.228;21.026;2023-04-24T19:38:43;11.82;;;7.75;;
21392;SDS011;10857;52.228;21.026;2023-04-24T19:41:10;17.70;;;8.52;;
21392;SDS011;10857;52.228;21.026;2023-04-24T19:43:38;11.07;;;7.85;;
21392;SDS011;10857;52.228;21.026;2023-04-24T19:46:06;13.43;;;8.27;;
21392;SDS011;10857;52.228;21.026;2023-04-24T19:48:33;13.18;;;8.15;;
21392;SDS011;10857;52.228;21.026;2023-04-24T19:51:01;10.32;;;7.85;;
21392;SDS011;10857;52.228;21.026;2023-04-24T19:53:28;15.32;;;7.82;;